createdAt,value
2023-01-09T00:01:42.904Z,16.60
2023-01-09T00:04:12.566Z,17.00
2023-01-09T00:06:42.855Z,18.60
2023-01-09T00:09:11.137Z,17.00
2023-01-09T00:11:39.528Z,17.00
2023-01-09T00:14:08.401Z,17.80
2023-01-09T00:16:37.737Z,16.70
2023-01-09T00:19:06.043Z,16.60
2023-01-09T00:21:34.255Z,15.10
2023-01-09T00:24:02.406Z,16.50
2023-01-09T00:26:31.265Z,17.00
2023-01-09T00:29:00.074Z,16.70
2023-01-09T00:31:28.408Z,16.80
2023-01-09T00:34:07.492Z,16.90
2023-01-09T00:36:35.714Z,16.20
2023-01-09T00:39:04.575Z,15.30
2023-01-09T00:41:41.927Z,16.70
2023-01-09T00:44:27.772Z,16.70
2023-01-09T00:47:03.064Z,15.30
2023-01-09T00:49:34.481Z,15.90
2023-01-09T00:52:04.474Z,15.80
2023-01-09T00:54:33.098Z,16.10
2023-01-09T00:57:01.469Z,17.40
2023-01-09T00:59:29.637Z,17.40
2023-01-09T01:01:58.076Z,15.70
2023-01-09T01:04:45.264Z,15.90
2023-01-09T01:07:32.090Z,15.70
2023-01-09T01:10:00.294Z,14.70
2023-01-09T01:12:28.529Z,14.80
2023-01-09T01:14:56.639Z,16.20
2023-01-09T01:17:25.098Z,16.30
2023-01-09T01:19:53.742Z,16.20
2023-01-09T01:22:21.796Z,15.40
2023-01-09T01:24:50.016Z,15.80
2023-01-09T01:27:18.597Z,17.50
2023-01-09T01:29:46.698Z,16.00
2023-01-09T01:32:15.330Z,16.90
2023-01-09T01:34:43.724Z,16.20
2023-01-09T01:37:11.751Z,15.60
2023-01-09T01:39:40.205Z,17.60
2023-01-09T01:42:08.573Z,16.60
2023-01-09T01:45:04.568Z,17.20
2023-01-09T01:47:42.348Z,15.80
2023-01-09T01:50:18.070Z,17.20
2023-01-09T01:52:52.807Z,15.90
2023-01-09T01:55:21.218Z,16.10
2023-01-09T01:57:53.775Z,16.20
2023-01-09T02:00:24.954Z,16.60
2023-01-09T02:03:28.559Z,16.10
2023-01-09T02:06:25.350Z,19.00
2023-01-09T02:08:52.129Z,16.90
2023-01-09T02:11:19.887Z,17.10
2023-01-09T02:13:47.620Z,17.60
2023-01-09T02:16:29.281Z,17.70
2023-01-09T02:19:34.043Z,17.50
2023-01-09T02:22:22.086Z,16.80
2023-01-09T02:25:00.882Z,18.50
2023-01-09T02:27:58.690Z,19.10
2023-01-09T02:30:31.487Z,17.80
2023-01-09T02:33:10.336Z,17.00
2023-01-09T02:35:37.004Z,16.70
2023-01-09T02:38:12.499Z,18.20
2023-01-09T02:40:47.454Z,18.80
2023-01-09T02:43:15.341Z,18.70
2023-01-09T02:45:42.019Z,19.50
2023-01-09T02:48:12.398Z,18.90
2023-01-09T02:50:47.612Z,16.20
2023-01-09T02:53:35.721Z,17.00
2023-01-09T02:56:24.445Z,19.40
2023-01-09T02:59:16.769Z,18.90
2023-01-09T03:02:05.343Z,16.50
2023-01-09T03:04:38.196Z,19.10
2023-01-09T03:07:17.144Z,19.60
2023-01-09T03:09:49.892Z,19.80
2023-01-09T03:12:21.071Z,18.00
2023-01-09T03:14:51.462Z,17.60
2023-01-09T03:17:34.957Z,18.00
2023-01-09T03:20:05.299Z,18.50
2023-01-09T03:22:32.227Z,17.40
2023-01-09T03:24:59.016Z,20.70
2023-01-09T03:27:26.398Z,21.60
2023-01-09T03:29:54.083Z,18.80
2023-01-09T03:32:20.777Z,18.60
2023-01-09T03:34:47.446Z,18.80
2023-01-09T03:37:14.398Z,19.40
2023-01-09T03:39:42.683Z,19.70
2023-01-09T03:42:09.398Z,18.70
2023-01-09T03:44:36.253Z,18.40
2023-01-09T03:47:02.946Z,19.70
2023-01-09T03:49:30.028Z,20.70
2023-01-09T03:51:56.955Z,22.20
2023-01-09T03:54:23.729Z,20.10
2023-01-09T03:56:50.556Z,20.10
2023-01-09T03:59:18.016Z,20.10
2023-01-09T04:01:44.703Z,17.80
2023-01-09T04:04:11.698Z,18.70
2023-01-09T04:06:38.562Z,19.70
2023-01-09T04:09:05.226Z,20.10
2023-01-09T04:11:31.895Z,20.60
2023-01-09T04:13:58.938Z,20.70
2023-01-09T04:16:25.640Z,20.60
2023-01-09T04:18:52.303Z,20.50
2023-01-09T04:21:19.253Z,21.60
2023-01-09T04:23:45.932Z,19.10
2023-01-09T04:26:12.826Z,21.70
2023-01-09T04:28:39.611Z,21.60
2023-01-09T04:31:06.299Z,22.20
2023-01-09T04:33:33.080Z,21.10
2023-01-09T04:36:00.070Z,19.50
2023-01-09T04:38:26.891Z,19.80
2023-01-09T04:40:53.797Z,20.50
2023-01-09T04:43:20.941Z,20.00
2023-01-09T04:45:47.616Z,21.60
2023-01-09T04:48:14.404Z,19.90
2023-01-09T04:50:41.215Z,20.50
2023-01-09T04:53:08.165Z,19.80
2023-01-09T04:55:35.189Z,21.70
2023-01-09T04:58:02.205Z,22.60
2023-01-09T05:00:28.847Z,20.10
2023-01-09T05:02:56.710Z,19.80
2023-01-09T05:05:23.743Z,19.10
2023-01-09T05:07:50.413Z,21.00
2023-01-09T05:10:17.373Z,21.20
2023-01-09T05:12:44.247Z,23.00
2023-01-09T05:15:11.345Z,21.90
2023-01-09T05:17:38.071Z,21.30
2023-01-09T05:20:05.176Z,18.60
2023-01-09T05:22:31.959Z,21.10
2023-01-09T05:25:00.440Z,21.70
2023-01-09T05:27:27.710Z,17.00
2023-01-09T05:29:54.403Z,20.40
2023-01-09T05:32:21.191Z,21.50
2023-01-09T05:34:48.104Z,23.70
2023-01-09T05:37:14.811Z,21.80
2023-01-09T05:39:41.604Z,20.80
2023-01-09T05:42:08.469Z,22.20
2023-01-09T05:44:35.132Z,20.20
2023-01-09T05:47:02.919Z,22.10
2023-01-09T05:49:30.159Z,22.40
2023-01-09T05:51:56.781Z,22.10
2023-01-09T05:54:23.549Z,24.60
2023-01-09T05:56:50.378Z,25.00
2023-01-09T05:59:17.075Z,23.00
2023-01-09T06:01:44.063Z,21.30
2023-01-09T06:04:10.912Z,19.30
2023-01-09T06:06:37.817Z,19.30
2023-01-09T06:09:04.570Z,19.20
2023-01-09T06:11:33.679Z,21.50
2023-01-09T06:14:00.818Z,21.50
2023-01-09T06:16:27.606Z,20.80
2023-01-09T06:18:54.879Z,20.90
2023-01-09T06:21:21.617Z,20.40
2023-01-09T06:23:48.412Z,21.00
2023-01-09T06:26:15.333Z,21.60
2023-01-09T06:28:44.499Z,22.70
2023-01-09T06:31:11.598Z,22.50
2023-01-09T06:33:38.702Z,22.60
2023-01-09T06:36:05.567Z,23.50
2023-01-09T06:38:32.500Z,22.00
2023-01-09T06:40:59.417Z,20.70
2023-01-09T06:43:26.171Z,22.00
2023-01-09T06:45:53.738Z,21.10
2023-01-09T06:48:20.615Z,23.50
2023-01-09T06:50:48.110Z,23.50
2023-01-09T06:53:14.910Z,23.20
2023-01-09T06:55:41.710Z,23.10
2023-01-09T06:58:08.436Z,25.00
2023-01-09T07:00:36.024Z,21.50
2023-01-09T07:03:04.028Z,24.10
2023-01-09T07:05:37.464Z,23.20
2023-01-09T07:08:04.390Z,22.50
2023-01-09T07:10:31.064Z,23.90
2023-01-09T07:12:57.997Z,23.80
2023-01-09T07:15:25.053Z,25.30
2023-01-09T07:17:52.576Z,24.00
2023-01-09T07:20:20.308Z,21.60
2023-01-09T07:22:47.291Z,24.10
2023-01-09T07:25:13.982Z,20.90
2023-01-09T07:27:41.762Z,20.50
2023-01-09T07:30:09.447Z,20.50
2023-01-09T07:32:37.875Z,22.80
2023-01-09T07:35:05.154Z,22.30
2023-01-09T07:37:32.044Z,23.00
2023-01-09T07:39:58.677Z,21.40
2023-01-09T07:42:25.471Z,21.20
2023-01-09T07:44:52.312Z,21.70
2023-01-09T07:47:19.045Z,22.90
2023-01-09T07:49:45.811Z,22.40
2023-01-09T07:52:12.833Z,21.60
2023-01-09T07:54:39.597Z,22.60
2023-01-09T07:57:06.414Z,25.90
2023-01-09T07:59:33.592Z,23.10
2023-01-09T08:02:01.855Z,22.60
2023-01-09T08:04:28.872Z,20.60
2023-01-09T08:06:56.352Z,21.50
2023-01-09T08:09:23.515Z,20.60
2023-01-09T08:11:50.300Z,19.10
2023-01-09T08:14:17.119Z,22.60
2023-01-09T08:16:43.828Z,23.00
2023-01-09T08:19:11.640Z,20.80
2023-01-09T08:21:39.177Z,19.30
2023-01-09T08:24:06.394Z,19.70
2023-01-09T08:26:33.131Z,19.80
2023-01-09T08:29:00.126Z,18.40
2023-01-09T08:31:26.799Z,20.10
2023-01-09T08:33:53.824Z,22.10
2023-01-09T08:36:21.394Z,18.90
2023-01-09T08:38:48.516Z,19.10
2023-01-09T08:41:33.807Z,18.50
2023-01-09T08:44:19.226Z,19.70
2023-01-09T08:47:05.200Z,18.80
2023-01-09T08:49:37.726Z,19.50
2023-01-09T08:52:05.953Z,19.80
2023-01-09T08:54:34.748Z,20.10
2023-01-09T08:57:02.178Z,19.80
2023-01-09T08:59:29.185Z,18.70
2023-01-09T09:01:57.626Z,17.20
2023-01-09T09:04:24.644Z,18.20
2023-01-09T09:06:51.566Z,16.70
2023-01-09T09:09:18.771Z,18.40
2023-01-09T09:11:45.752Z,18.00
2023-01-09T09:14:31.434Z,16.90
2023-01-09T09:16:58.832Z,16.10
2023-01-09T09:19:25.556Z,15.40
2023-01-09T09:21:52.673Z,16.00
2023-01-09T09:24:20.087Z,15.80
2023-01-09T09:26:46.753Z,14.40
2023-01-09T09:29:13.705Z,13.90
2023-01-09T09:31:40.857Z,16.80
2023-01-09T09:34:07.577Z,16.30
2023-01-09T09:36:34.386Z,14.90
2023-01-09T09:39:02.212Z,16.20
2023-01-09T09:41:58.205Z,15.60
2023-01-09T09:44:54.323Z,15.40
2023-01-09T09:47:48.004Z,14.40
2023-01-09T09:50:27.409Z,15.40
2023-01-09T09:53:19.193Z,13.60
2023-01-09T09:55:49.199Z,15.20
2023-01-09T09:58:45.080Z,13.80
2023-01-09T10:01:17.797Z,14.00
2023-01-09T10:03:55.445Z,13.60
2023-01-09T10:06:37.187Z,13.20
2023-01-09T10:09:15.754Z,14.60
2023-01-09T10:12:00.549Z,14.20
2023-01-09T10:14:27.594Z,12.10
2023-01-09T10:17:19.392Z,13.90
2023-01-09T10:20:13.377Z,13.00
2023-01-09T10:23:05.417Z,13.10
2023-01-09T10:26:00.747Z,14.40
2023-01-09T10:28:46.100Z,12.70
2023-01-09T10:31:35.461Z,12.90
2023-01-09T10:34:19.184Z,12.40
2023-01-09T10:37:01.598Z,13.70
2023-01-09T10:39:58.709Z,13.10
2023-01-09T10:42:49.374Z,12.10
2023-01-09T10:45:53.777Z,11.20
2023-01-09T10:48:43.924Z,10.90
2023-01-09T10:51:23.820Z,11.40
2023-01-09T10:53:53.546Z,13.00
2023-01-09T10:56:36.362Z,11.90
2023-01-09T10:59:03.949Z,12.50
2023-01-09T11:01:36.859Z,12.20
2023-01-09T11:04:28.940Z,13.00
2023-01-09T11:07:12.283Z,13.00
2023-01-09T11:09:55.726Z,13.00
2023-01-09T11:12:29.122Z,11.50
2023-01-09T11:15:16.061Z,12.70
2023-01-09T11:17:43.659Z,12.80
2023-01-09T11:20:22.349Z,12.70
2023-01-09T11:22:52.230Z,13.10
2023-01-09T11:25:21.408Z,12.00
2023-01-09T11:28:06.250Z,14.20
2023-01-09T11:30:50.339Z,14.80
2023-01-09T11:33:24.264Z,13.10
2023-01-09T11:35:54.655Z,14.30
2023-01-09T11:38:24.337Z,14.30
2023-01-09T11:40:54.794Z,14.20
2023-01-09T11:43:40.053Z,14.60
2023-01-09T11:46:10.895Z,15.10
2023-01-09T11:48:39.226Z,14.20
2023-01-09T11:51:30.284Z,14.70
2023-01-09T11:54:18.791Z,14.30
2023-01-09T11:56:46.785Z,14.40
2023-01-09T11:59:16.801Z,13.50
2023-01-09T12:01:52.003Z,14.90
2023-01-09T12:04:51.675Z,15.00
2023-01-09T12:07:50.234Z,15.70
2023-01-09T12:11:01.062Z,16.10
2023-01-09T12:13:48.445Z,14.70
2023-01-09T12:16:25.001Z,13.90
2023-01-09T12:19:11.518Z,14.90
2023-01-09T12:22:00.969Z,15.30
2023-01-09T12:24:34.082Z,15.50
2023-01-09T12:27:30.881Z,14.60
2023-01-09T12:30:45.817Z,14.30
2023-01-09T12:33:26.236Z,13.40
2023-01-09T12:36:11.116Z,13.10
2023-01-09T12:38:47.014Z,14.20
2023-01-09T12:41:33.031Z,11.70
2023-01-09T12:44:18.082Z,13.30
2023-01-09T12:47:23.998Z,13.20
2023-01-09T12:50:06.963Z,12.40
2023-01-09T12:52:43.186Z,12.30
2023-01-09T12:55:16.248Z,11.90
2023-01-09T12:57:50.645Z,12.20
2023-01-09T13:00:37.198Z,11.40
2023-01-09T13:03:18.563Z,11.10
2023-01-09T13:05:51.147Z,10.90
2023-01-09T13:08:35.662Z,13.20
2023-01-09T13:11:20.488Z,12.20
2023-01-09T13:14:14.466Z,11.10
2023-01-09T13:16:49.024Z,11.90
2023-01-09T13:19:33.977Z,11.20
2023-01-09T13:22:04.608Z,11.50
2023-01-09T13:25:07.368Z,11.90
2023-01-09T13:27:39.901Z,11.40
2023-01-09T13:30:13.121Z,12.90
2023-01-09T13:32:42.541Z,12.30
2023-01-09T13:35:14.231Z,11.60
2023-01-09T13:37:42.287Z,11.50
2023-01-09T13:40:21.043Z,12.30
2023-01-09T13:43:03.602Z,11.70
2023-01-09T13:45:37.116Z,12.30
2023-01-09T13:48:10.433Z,12.60
2023-01-09T13:50:38.156Z,11.70
2023-01-09T13:53:17.279Z,12.50
2023-01-09T13:56:02.647Z,12.30
2023-01-09T13:58:31.161Z,12.00
2023-01-09T14:01:01.094Z,13.50
2023-01-09T14:03:32.469Z,13.30
2023-01-09T14:05:59.680Z,13.00
2023-01-09T14:08:28.748Z,12.70
2023-01-09T14:11:06.109Z,12.50
2023-01-09T14:13:37.553Z,11.70
2023-01-09T14:16:10.342Z,11.80
2023-01-09T14:18:45.519Z,12.90
2023-01-09T14:21:12.912Z,14.20
2023-01-09T14:23:52.578Z,14.10
2023-01-09T14:26:25.108Z,14.70
2023-01-09T14:29:17.453Z,14.00
2023-01-09T14:31:44.401Z,12.60
2023-01-09T14:34:31.934Z,14.20
2023-01-09T14:37:02.006Z,13.30
2023-01-09T14:39:31.930Z,12.80
2023-01-09T14:42:07.842Z,13.00
2023-01-09T14:44:46.542Z,12.00
2023-01-09T14:47:28.958Z,10.60
2023-01-09T14:50:21.439Z,10.40
2023-01-09T14:52:53.591Z,10.10
2023-01-09T14:55:29.737Z,11.10
2023-01-09T14:58:28.650Z,9.70
2023-01-09T15:01:04.959Z,8.90
2023-01-09T15:03:38.968Z,8.50
2023-01-09T15:06:20.617Z,7.90
2023-01-09T15:08:54.509Z,7.70
2023-01-09T15:11:21.545Z,7.20
2023-01-09T15:13:52.229Z,7.80
2023-01-09T15:16:21.551Z,8.20
2023-01-09T15:18:53.086Z,8.30
2023-01-09T15:21:24.062Z,7.00
2023-01-09T15:23:51.099Z,6.80
2023-01-09T15:26:30.437Z,7.50
2023-01-09T15:29:12.306Z,7.40
2023-01-09T15:31:42.393Z,7.80
2023-01-09T15:34:18.530Z,7.40
2023-01-09T15:36:48.582Z,7.70
2023-01-09T15:39:23.931Z,6.10
2023-01-09T15:42:09.750Z,6.10
2023-01-09T15:44:39.539Z,5.20
2023-01-09T15:47:11.761Z,5.90
2023-01-09T15:49:38.701Z,5.40
2023-01-09T15:52:11.178Z,5.40
2023-01-09T15:54:39.779Z,4.70
2023-01-09T15:57:32.584Z,4.50
2023-01-09T16:00:31.260Z,4.40
2023-01-09T16:03:10.684Z,5.30
2023-01-09T16:05:46.768Z,4.80
2023-01-09T16:08:28.910Z,4.50
2023-01-09T16:11:00.997Z,4.90
2023-01-09T16:13:30.728Z,4.50
2023-01-09T16:15:59.910Z,5.30
2023-01-09T16:18:33.346Z,5.00
2023-01-09T16:21:31.451Z,4.80
2023-01-09T16:24:13.218Z,4.70
2023-01-09T16:26:40.239Z,4.60
2023-01-09T16:29:37.007Z,5.10
2023-01-09T16:32:06.123Z,5.70
2023-01-09T16:34:34.352Z,5.30
2023-01-09T16:37:02.318Z,5.50
2023-01-09T16:39:30.071Z,5.50
2023-01-09T16:42:15.728Z,5.80
2023-01-09T16:44:42.773Z,4.90
2023-01-09T16:47:11.953Z,6.20
2023-01-09T16:49:38.765Z,6.90
2023-01-09T16:52:14.809Z,6.10
2023-01-09T16:54:43.304Z,7.30
2023-01-09T16:57:15.406Z,6.30
2023-01-09T16:59:42.983Z,5.20
2023-01-09T17:02:17.537Z,5.30
2023-01-09T17:04:44.426Z,5.70
2023-01-09T17:07:15.889Z,6.70
2023-01-09T17:09:43.162Z,5.80
2023-01-09T17:12:24.231Z,6.40
2023-01-09T17:14:51.075Z,6.00
2023-01-09T17:17:18.182Z,6.30
2023-01-09T17:19:47.633Z,6.60
2023-01-09T17:22:15.044Z,6.80
2023-01-09T17:25:00.239Z,6.90
2023-01-09T17:27:52.743Z,6.70
2023-01-09T17:30:20.462Z,6.50
2023-01-09T17:32:48.200Z,7.30
2023-01-09T17:35:15.588Z,7.10
2023-01-09T17:37:43.780Z,7.80
2023-01-09T17:40:22.343Z,7.80
2023-01-09T17:42:49.099Z,7.00
2023-01-09T17:45:15.980Z,7.60
2023-01-09T17:47:42.932Z,7.70
2023-01-09T17:50:18.083Z,7.60
2023-01-09T17:52:46.403Z,7.30
2023-01-09T17:55:13.403Z,7.20
2023-01-09T17:57:42.806Z,8.90
2023-01-09T18:00:26.014Z,8.20
2023-01-09T18:02:54.306Z,8.10
2023-01-09T18:05:22.003Z,8.70
2023-01-09T18:07:49.296Z,9.20
2023-01-09T18:10:18.735Z,8.70
2023-01-09T18:12:50.028Z,8.10
2023-01-09T18:15:16.879Z,9.10
2023-01-09T18:17:43.546Z,9.20
2023-01-09T18:20:10.787Z,10.20
2023-01-09T18:22:37.648Z,9.40
2023-01-09T18:25:05.295Z,10.10
2023-01-09T18:27:34.738Z,9.00
2023-01-09T18:30:04.284Z,8.60
2023-01-09T18:32:32.281Z,9.20
2023-01-09T18:35:00.257Z,9.70
2023-01-09T18:37:27.029Z,9.10
2023-01-09T18:39:53.700Z,11.00
2023-01-09T18:42:20.528Z,10.30
2023-01-09T18:44:47.356Z,9.70
2023-01-09T18:47:13.946Z,9.60
2023-01-09T18:49:41.030Z,10.10
2023-01-09T18:52:07.939Z,10.20
2023-01-09T18:54:34.623Z,10.40
2023-01-09T18:57:01.630Z,9.60
2023-01-09T18:59:28.386Z,10.50
2023-01-09T19:01:54.988Z,10.40
2023-01-09T19:04:22.206Z,10.20
2023-01-09T19:06:49.863Z,11.00
2023-01-09T19:09:16.597Z,11.90
2023-01-09T19:11:44.269Z,10.90
2023-01-09T19:14:13.190Z,10.40
2023-01-09T19:16:40.089Z,11.20
2023-01-09T19:19:08.219Z,10.20
2023-01-09T19:21:35.534Z,10.50
2023-01-09T19:24:02.202Z,12.20
2023-01-09T19:26:30.325Z,11.00
2023-01-09T19:28:57.090Z,11.40
2023-01-09T19:31:25.698Z,10.90
2023-01-09T19:33:52.692Z,11.80
2023-01-09T19:36:20.655Z,11.60
2023-01-09T19:38:47.445Z,12.00
2023-01-09T19:41:19.592Z,11.40
2023-01-09T19:43:47.156Z,12.50
2023-01-09T19:46:21.318Z,11.10
2023-01-09T19:48:48.621Z,12.60
2023-01-09T19:51:17.184Z,11.20
2023-01-09T19:53:44.368Z,10.10
2023-01-09T19:56:12.903Z,10.60
2023-01-09T19:58:40.811Z,10.80
2023-01-09T20:01:14.669Z,10.90
2023-01-09T20:03:43.308Z,11.20
2023-01-09T20:06:16.967Z,10.70
2023-01-09T20:08:47.907Z,9.90
2023-01-09T20:11:15.292Z,9.80
2023-01-09T20:13:42.797Z,9.30
2023-01-09T20:16:19.326Z,10.40
2023-01-09T20:18:47.618Z,9.80
2023-01-09T20:21:21.040Z,10.20
2023-01-09T20:23:50.821Z,10.20
2023-01-09T20:26:18.450Z,9.90
2023-01-09T20:28:46.251Z,9.50
2023-01-09T20:31:15.878Z,10.00
2023-01-09T20:33:44.130Z,10.30
2023-01-09T20:36:10.947Z,11.50
2023-01-09T20:38:39.262Z,10.60
2023-01-09T20:41:23.713Z,10.80
2023-01-09T20:44:13.056Z,11.40
2023-01-09T20:46:42.817Z,12.30
2023-01-09T20:49:12.439Z,12.20
2023-01-09T20:51:46.113Z,11.80
2023-01-09T20:54:14.401Z,13.30
2023-01-09T20:56:41.470Z,11.60
2023-01-09T20:59:17.049Z,13.20
2023-01-09T21:01:43.817Z,12.40
2023-01-09T21:04:10.587Z,12.00
2023-01-09T21:06:37.737Z,12.10
2023-01-09T21:09:05.542Z,11.60
2023-01-09T21:11:32.744Z,11.60
2023-01-09T21:13:59.819Z,12.70
2023-01-09T21:16:26.677Z,12.30
2023-01-09T21:18:54.455Z,12.70
2023-01-09T21:21:24.162Z,11.70
2023-01-09T21:23:55.258Z,12.20
2023-01-09T21:26:25.983Z,12.30
2023-01-09T21:28:54.691Z,11.20
2023-01-09T21:31:30.361Z,13.10
2023-01-09T21:33:57.287Z,10.80
2023-01-09T21:36:23.988Z,11.70
2023-01-09T21:38:53.629Z,10.80
2023-01-09T21:41:39.436Z,11.80
2023-01-09T21:44:28.648Z,11.70
2023-01-09T21:46:56.947Z,11.50
2023-01-09T21:49:25.815Z,11.10
2023-01-09T21:51:53.914Z,11.00
2023-01-09T21:54:24.883Z,11.50
2023-01-09T21:56:52.356Z,11.60
2023-01-09T21:59:19.160Z,11.70
2023-01-09T22:01:48.457Z,11.20
2023-01-09T22:04:16.654Z,11.70
2023-01-09T22:06:43.384Z,11.30
2023-01-09T22:09:10.760Z,12.10
2023-01-09T22:11:38.219Z,11.40
2023-01-09T22:14:05.751Z,12.40
2023-01-09T22:16:33.147Z,12.30
2023-01-09T22:18:59.959Z,12.40
2023-01-09T22:21:26.849Z,12.20
2023-01-09T22:23:53.935Z,13.00
2023-01-09T22:26:20.977Z,11.70
2023-01-09T22:28:48.031Z,11.50
2023-01-09T22:31:18.096Z,12.40
2023-01-09T22:33:50.268Z,12.60
2023-01-09T22:36:17.257Z,12.30
2023-01-09T22:38:44.708Z,12.70
2023-01-09T22:41:12.522Z,11.60
2023-01-09T22:43:39.402Z,12.00
2023-01-09T22:46:09.127Z,12.40
2023-01-09T22:48:38.739Z,11.10
2023-01-09T22:51:10.164Z,11.50
2023-01-09T22:53:36.814Z,12.70
2023-01-09T22:56:07.720Z,11.50
2023-01-09T22:58:34.438Z,12.20
2023-01-09T23:01:01.650Z,12.40
2023-01-09T23:03:28.600Z,11.70
2023-01-09T23:06:07.943Z,11.80
2023-01-09T23:08:35.032Z,11.60
2023-01-09T23:11:04.524Z,11.30
2023-01-09T23:13:31.247Z,12.10
2023-01-09T23:15:58.146Z,11.00
2023-01-09T23:18:24.899Z,9.80
2023-01-09T23:20:53.884Z,9.80
2023-01-09T23:23:22.296Z,10.20
2023-01-09T23:25:53.677Z,9.10
2023-01-09T23:28:21.290Z,9.40
2023-01-09T23:30:48.880Z,9.90
2023-01-09T23:33:16.494Z,10.90
2023-01-09T23:35:43.930Z,10.90
2023-01-09T23:38:11.465Z,10.80
2023-01-09T23:40:40.620Z,11.00
2023-01-09T23:43:09.982Z,11.30
2023-01-09T23:45:38.669Z,10.20
2023-01-09T23:48:07.292Z,11.50
2023-01-09T23:50:34.373Z,10.80
2023-01-09T23:53:01.549Z,10.40
2023-01-09T23:55:28.672Z,10.90
2023-01-09T23:57:55.646Z,11.10
